createdAt,value
2023-04-16T00:01:05.492Z,96295.55
2023-04-16T00:03:34.583Z,96297.11
2023-04-16T00:06:02.775Z,96294.09
2023-04-16T00:08:30.641Z,96299.65
2023-04-16T00:10:58.823Z,96296.34
2023-04-16T00:13:28.138Z,96296.23
2023-04-16T00:15:56.081Z,96295.00
2023-04-16T00:18:24.040Z,96295.88
2023-04-16T00:20:52.126Z,96297.71
2023-04-16T00:23:20.367Z,96297.55
2023-04-16T00:25:48.573Z,96297.52
2023-04-16T00:28:16.515Z,96296.70
2023-04-16T00:30:44.535Z,96297.15
2023-04-16T00:33:12.589Z,96296.21
2023-04-16T00:35:40.960Z,96298.90
2023-04-16T00:38:10.083Z,96306.59
2023-04-16T00:40:38.340Z,96309.22
2023-04-16T00:43:06.301Z,96309.31
2023-04-16T00:45:34.382Z,96310.13
2023-04-16T00:48:02.677Z,96315.44
2023-04-16T00:50:31.143Z,96315.04
2023-04-16T00:52:59.212Z,96312.03
2023-04-16T00:55:27.391Z,96316.86
2023-04-16T00:57:55.722Z,96311.16
2023-04-16T01:00:24.064Z,96310.69
2023-04-16T01:02:53.559Z,96311.33
2023-04-16T01:05:21.718Z,96310.23
2023-04-16T01:07:50.608Z,96311.56
2023-04-16T01:10:18.888Z,96309.09
2023-04-16T01:12:47.068Z,96312.72
2023-04-16T01:15:15.445Z,96314.73
2023-04-16T01:17:46.198Z,96313.57
2023-04-16T01:20:14.878Z,96315.63
2023-04-16T01:22:43.158Z,96307.13
2023-04-16T01:25:14.851Z,96312.45
2023-04-16T01:27:42.970Z,96309.27
2023-04-16T01:30:11.577Z,96306.20
2023-04-16T01:32:48.770Z,96308.11
2023-04-16T01:35:18.269Z,96308.48
2023-04-16T01:37:46.617Z,96304.71
2023-04-16T01:40:14.697Z,96299.94
2023-04-16T01:42:42.642Z,96300.59
2023-04-16T01:45:11.455Z,96301.06
2023-04-16T01:47:39.584Z,96300.45
2023-04-16T01:50:08.217Z,96303.96
2023-04-16T01:52:37.249Z,96303.39
2023-04-16T01:55:06.101Z,96304.95
2023-04-16T01:57:34.171Z,96304.77
2023-04-16T02:00:03.378Z,96302.30
2023-04-16T02:02:32.430Z,96299.61
2023-04-16T02:05:01.323Z,96298.39
2023-04-16T02:07:31.877Z,96292.59
2023-04-16T02:09:59.966Z,96292.11
2023-04-16T02:12:29.347Z,96291.18
2023-04-16T02:14:57.420Z,96296.27
2023-04-16T02:17:27.513Z,96299.98
2023-04-16T02:20:08.384Z,96301.14
2023-04-16T02:22:38.326Z,96302.52
2023-04-16T02:25:07.647Z,96301.75
2023-04-16T02:27:36.830Z,96297.23
2023-04-16T02:30:19.336Z,96303.91
2023-04-16T02:32:47.555Z,96297.85
2023-04-16T02:35:16.197Z,96297.96
2023-04-16T02:37:44.263Z,96297.57
2023-04-16T02:40:12.193Z,96298.67
2023-04-16T02:42:40.409Z,96300.20
2023-04-16T02:45:09.769Z,96300.09
2023-04-16T02:47:38.028Z,96298.87
2023-04-16T02:50:07.065Z,96301.15
2023-04-16T02:52:35.168Z,96303.15
2023-04-16T02:55:03.339Z,96309.53
2023-04-16T02:57:31.410Z,96308.20
2023-04-16T02:59:59.474Z,96306.77
2023-04-16T03:02:27.847Z,96302.41
2023-04-16T03:04:56.027Z,96302.04
2023-04-16T03:07:24.100Z,96304.39
2023-04-16T03:09:52.288Z,96304.84
2023-04-16T03:12:20.218Z,96309.09
2023-04-16T03:14:48.208Z,96303.65
2023-04-16T03:17:16.593Z,96305.27
2023-04-16T03:19:44.871Z,96308.30
2023-04-16T03:22:13.664Z,96310.27
2023-04-16T03:24:41.782Z,96310.88
2023-04-16T03:27:09.906Z,96310.64
2023-04-16T03:29:38.898Z,96309.96
2023-04-16T03:32:07.781Z,96312.83
2023-04-16T03:34:36.868Z,96312.31
2023-04-16T03:37:06.322Z,96312.98
2023-04-16T03:39:34.781Z,96316.41
2023-04-16T03:42:03.697Z,96321.31
2023-04-16T03:44:31.782Z,96322.23
2023-04-16T03:46:59.832Z,96323.53
2023-04-16T03:49:28.183Z,96327.89
2023-04-16T03:51:56.255Z,96328.25
2023-04-16T03:54:24.432Z,96332.41
2023-04-16T03:56:57.940Z,96330.56
2023-04-16T03:59:26.106Z,96333.95
2023-04-16T04:01:54.210Z,96335.47
2023-04-16T04:04:23.105Z,96334.25
2023-04-16T04:06:51.279Z,96337.77
2023-04-16T04:09:19.311Z,96342.02
2023-04-16T04:11:47.705Z,96348.83
2023-04-16T04:14:15.867Z,96350.14
2023-04-16T04:16:44.102Z,96344.62
2023-04-16T04:19:12.739Z,96347.77
2023-04-16T04:21:41.107Z,96349.59
2023-04-16T04:24:10.720Z,96354.64
2023-04-16T04:26:38.594Z,96347.42
2023-04-16T04:29:07.153Z,96358.22
2023-04-16T04:31:36.498Z,96359.03
2023-04-16T04:34:04.739Z,96355.79
2023-04-16T04:36:33.827Z,96359.60
2023-04-16T04:39:02.114Z,96356.58
2023-04-16T04:41:30.297Z,96362.68
2023-04-16T04:43:58.254Z,96368.02
2023-04-16T04:46:26.656Z,96364.03
2023-04-16T04:48:55.010Z,96363.18
2023-04-16T04:51:23.189Z,96363.01
2023-04-16T04:53:51.448Z,96367.79
2023-04-16T04:56:19.645Z,96368.45
2023-04-16T04:58:47.627Z,96368.48
2023-04-16T05:01:15.734Z,96366.98
2023-04-16T05:03:44.469Z,96368.35
2023-04-16T05:06:12.747Z,96367.53
2023-04-16T05:08:40.919Z,96369.09
2023-04-16T05:11:08.993Z,96370.55
2023-04-16T05:13:37.271Z,96373.40
2023-04-16T05:16:06.157Z,96371.41
2023-04-16T05:18:34.240Z,96371.11
2023-04-16T05:21:02.715Z,96374.73
2023-04-16T05:23:30.683Z,96377.35
2023-04-16T05:25:58.622Z,96382.20
2023-04-16T05:28:26.621Z,96382.34
2023-04-16T05:30:54.824Z,96380.98
2023-04-16T05:33:22.971Z,96380.64
2023-04-16T05:35:51.146Z,96386.02
2023-04-16T05:38:19.241Z,96382.84
2023-04-16T05:40:47.191Z,96382.44
2023-04-16T05:43:15.256Z,96379.98
2023-04-16T05:45:43.217Z,96380.32
2023-04-16T05:48:11.501Z,96378.29
2023-04-16T05:50:39.875Z,96373.52
2023-04-16T05:53:08.872Z,96373.88
2023-04-16T05:55:39.810Z,96372.34
2023-04-16T05:58:07.874Z,96374.60
2023-04-16T06:00:36.051Z,96374.86
2023-04-16T06:03:04.661Z,96378.25
2023-04-16T06:05:32.941Z,96381.89
2023-04-16T06:08:01.302Z,96381.67
2023-04-16T06:10:29.632Z,96377.75
2023-04-16T06:12:57.845Z,96379.20
2023-04-16T06:15:26.015Z,96377.14
2023-04-16T06:17:54.699Z,96376.23
2023-04-16T06:20:22.900Z,96375.40
2023-04-16T06:22:50.850Z,96375.48
2023-04-16T06:25:18.824Z,96380.30
2023-04-16T06:27:46.786Z,96380.00
2023-04-16T06:30:15.785Z,96383.84
2023-04-16T06:32:44.416Z,96385.88
2023-04-16T06:35:12.648Z,96382.13
2023-04-16T06:37:40.849Z,96380.27
2023-04-16T06:40:09.526Z,96379.66
2023-04-16T06:42:37.517Z,96381.05
2023-04-16T06:45:06.667Z,96381.89
2023-04-16T06:47:34.791Z,96382.45
2023-04-16T06:50:02.927Z,96381.02
2023-04-16T06:52:31.090Z,96381.39
2023-04-16T06:54:59.486Z,96383.33
2023-04-16T06:57:27.753Z,96383.84
2023-04-16T06:59:55.940Z,96386.86
2023-04-16T07:02:24.509Z,96383.77
2023-04-16T07:04:52.688Z,96381.08
2023-04-16T07:07:20.854Z,96378.58
2023-04-16T07:09:48.918Z,96376.98
2023-04-16T07:12:17.116Z,96375.41
2023-04-16T07:14:45.575Z,96379.80
2023-04-16T07:17:13.668Z,96376.45
2023-04-16T07:19:41.717Z,96378.07
2023-04-16T07:22:09.904Z,96376.16
2023-04-16T07:24:37.978Z,96380.71
2023-04-16T07:27:06.246Z,96382.27
2023-04-16T07:29:34.305Z,96380.59
2023-04-16T07:32:02.415Z,96380.66
2023-04-16T07:34:30.413Z,96384.60
2023-04-16T07:36:58.533Z,96383.63
2023-04-16T07:39:26.611Z,96375.61
2023-04-16T07:41:54.594Z,96378.78
2023-04-16T07:44:22.657Z,96378.56
2023-04-16T07:46:50.789Z,96371.03
2023-04-16T07:49:18.870Z,96375.88
2023-04-16T07:51:47.166Z,96373.69
2023-04-16T07:54:15.246Z,96372.23
2023-04-16T07:56:43.160Z,96372.20
2023-04-16T07:59:21.791Z,96369.39
2023-04-16T08:01:52.865Z,96366.59
2023-04-16T08:04:25.302Z,96368.78
2023-04-16T08:06:54.639Z,96368.30
2023-04-16T08:09:23.584Z,96364.48
2023-04-16T08:11:51.695Z,96367.66
2023-04-16T08:14:19.681Z,96361.86
2023-04-16T08:16:47.758Z,96359.00
2023-04-16T08:19:15.830Z,96356.38
2023-04-16T08:21:44.342Z,96351.27
2023-04-16T08:24:12.253Z,96351.77
2023-04-16T08:26:40.538Z,96349.75
2023-04-16T08:29:08.943Z,96349.10
2023-04-16T08:31:37.278Z,96347.66
2023-04-16T08:34:05.496Z,96344.24
2023-04-16T08:36:33.564Z,96344.19
2023-04-16T08:39:01.641Z,96345.63
2023-04-16T08:41:33.090Z,96350.02
2023-04-16T08:44:01.381Z,96348.23
2023-04-16T08:46:29.353Z,96348.17
2023-04-16T08:48:57.504Z,96347.35
2023-04-16T08:51:27.212Z,96346.83
2023-04-16T08:54:00.428Z,96347.48
2023-04-16T08:56:28.489Z,96348.03
2023-04-16T08:58:56.705Z,96347.67
2023-04-16T09:03:58.520Z,96349.64
2023-04-16T09:06:27.829Z,96353.05
2023-04-16T09:11:29.088Z,96349.71
2023-04-16T09:13:57.573Z,96353.48
2023-04-16T09:18:58.428Z,96348.07
2023-04-16T09:21:26.594Z,96346.70
2023-04-16T09:23:54.667Z,96347.09
2023-04-16T09:26:22.848Z,96342.65
2023-04-16T09:28:53.683Z,96341.38
2023-04-16T09:31:21.712Z,96345.30
2023-04-16T09:34:02.418Z,96346.77
2023-04-16T09:36:31.712Z,96342.25
2023-04-16T09:39:00.004Z,96343.80
2023-04-16T09:41:29.427Z,96339.67
2023-04-16T09:44:02.267Z,96338.12
2023-04-16T09:46:42.862Z,96332.89
2023-04-16T09:49:14.882Z,96330.45
2023-04-16T09:51:43.941Z,96326.86
2023-04-16T09:54:12.061Z,96323.85
2023-04-16T09:56:46.627Z,96323.66
2023-04-16T09:59:20.996Z,96321.52
2023-04-16T10:01:50.074Z,96319.92
2023-04-16T10:04:18.317Z,96321.46
2023-04-16T10:07:03.556Z,96320.25
2023-04-16T10:09:38.000Z,96317.18
2023-04-16T10:12:06.848Z,96313.52
2023-04-16T10:14:35.093Z,96313.61
2023-04-16T10:17:04.189Z,96309.77
2023-04-16T10:19:32.840Z,96300.85
2023-04-16T10:22:01.605Z,96306.27
2023-04-16T10:24:30.429Z,96302.83
2023-04-16T10:26:58.736Z,96302.14
2023-04-16T10:29:30.761Z,96300.55
2023-04-16T10:31:58.933Z,96300.85
2023-04-16T10:34:27.117Z,96297.79
2023-04-16T10:36:55.489Z,96301.94
2023-04-16T10:39:24.392Z,96300.11
2023-04-16T10:42:07.779Z,96301.67
2023-04-16T10:44:36.271Z,96301.44
2023-04-16T10:47:11.362Z,96298.45
2023-04-16T10:49:39.809Z,96294.45
2023-04-16T10:52:12.705Z,96294.63
2023-04-16T10:54:41.175Z,96295.33
2023-04-16T11:07:34.603Z,96283.77
2023-04-16T11:10:13.045Z,96285.48
2023-04-16T11:12:41.106Z,96287.79
2023-04-16T11:15:10.392Z,96286.80
2023-04-16T11:17:46.064Z,96285.81
2023-04-16T11:20:28.039Z,96284.35
2023-04-16T11:22:57.449Z,96279.20
2023-04-16T11:25:27.348Z,96280.80
2023-04-16T11:27:55.427Z,96280.65
2023-04-16T11:30:34.317Z,96278.80
2023-04-16T11:33:05.893Z,96270.27
2023-04-16T11:35:33.983Z,96274.59
2023-04-16T11:38:02.463Z,96271.67
2023-04-16T11:40:31.403Z,96265.89
2023-04-16T11:43:04.105Z,96261.59
2023-04-16T11:45:32.127Z,96254.05
2023-04-16T11:48:00.301Z,96258.91
2023-04-16T11:50:28.696Z,96252.60
2023-04-16T11:52:57.981Z,96241.81
2023-04-16T11:55:26.114Z,96239.27
2023-04-16T11:57:54.202Z,96243.05
2023-04-16T12:00:24.579Z,96237.66
2023-04-16T12:02:54.118Z,96232.90
2023-04-16T12:05:34.058Z,96229.13
2023-04-16T12:10:38.631Z,96230.60
2023-04-16T12:15:54.146Z,96222.27
2023-04-16T12:18:23.863Z,96221.43
2023-04-16T12:20:51.822Z,96222.98
2023-04-16T12:23:30.110Z,96218.05
2023-04-16T12:26:02.781Z,96216.73
2023-04-16T12:28:33.488Z,96213.36
2023-04-16T12:31:02.513Z,96210.82
2023-04-16T12:36:20.123Z,96209.58
2023-04-16T12:38:48.239Z,96206.52
2023-04-16T12:41:17.169Z,96203.27
2023-04-16T12:43:45.213Z,96199.04
2023-04-16T12:46:13.329Z,96201.49
2023-04-16T12:48:41.862Z,96191.27
2023-04-16T12:51:09.951Z,96186.88
2023-04-16T12:53:38.030Z,96184.17
2023-04-16T12:56:06.596Z,96181.48
2023-04-16T12:58:34.964Z,96178.79
2023-04-16T13:01:02.938Z,96179.41
2023-04-16T13:03:31.372Z,96173.10
2023-04-16T13:05:59.700Z,96175.56
2023-04-16T13:08:27.773Z,96172.40
2023-04-16T13:10:55.950Z,96171.48
2023-04-16T13:13:23.875Z,96171.48
2023-04-16T13:15:52.126Z,96164.31
2023-04-16T13:18:20.267Z,96161.86
2023-04-16T13:20:48.431Z,96165.70
2023-04-16T13:23:16.515Z,96164.78
2023-04-16T13:25:44.784Z,96163.33
2023-04-16T13:28:12.897Z,96164.16
2023-04-16T13:30:41.334Z,96166.09
2023-04-16T13:33:09.418Z,96171.55
2023-04-16T13:35:37.490Z,96175.95
2023-04-16T13:38:06.278Z,96178.10
2023-04-16T13:40:34.726Z,96189.64
2023-04-16T13:43:02.833Z,96193.02
2023-04-16T13:45:31.105Z,96190.40
2023-04-16T13:47:59.716Z,96189.40
2023-04-16T13:50:28.167Z,96188.31
2023-04-16T13:52:56.538Z,96187.70
2023-04-16T13:55:24.831Z,96180.20
2023-04-16T13:57:53.505Z,96187.65
2023-04-16T14:00:21.988Z,96190.95
2023-04-16T14:02:50.132Z,96199.91
2023-04-16T14:05:19.686Z,96199.45
2023-04-16T14:07:47.942Z,96196.44
2023-04-16T14:10:16.226Z,96191.73
2023-04-16T14:12:45.021Z,96195.04
2023-04-16T14:15:14.940Z,96195.87
2023-04-16T14:17:43.717Z,96199.92
2023-04-16T14:20:13.020Z,96203.52
2023-04-16T14:22:42.626Z,96206.04
2023-04-16T14:25:10.900Z,96207.48
2023-04-16T14:27:38.864Z,96209.31
2023-04-16T14:30:08.172Z,96207.52
2023-04-16T14:32:36.903Z,96205.21
2023-04-16T14:35:05.849Z,96212.35
2023-04-16T14:37:36.082Z,96211.27
2023-04-16T14:40:08.604Z,96213.09
2023-04-16T14:42:37.129Z,96204.77
2023-04-16T14:45:06.826Z,96200.76
2023-04-16T14:47:35.383Z,96203.27
2023-04-16T14:50:03.830Z,96199.64
2023-04-16T14:52:32.504Z,96200.98
2023-04-16T14:55:00.665Z,96199.60
2023-04-16T14:57:28.945Z,96204.14
2023-04-16T14:59:57.084Z,96205.13
2023-04-16T15:02:26.213Z,96199.73
2023-04-16T15:04:54.690Z,96203.02
2023-04-16T15:07:22.960Z,96201.33
2023-04-16T15:09:51.244Z,96197.56
2023-04-16T15:12:19.532Z,96198.64
2023-04-16T15:14:47.685Z,96199.09
2023-04-16T15:17:15.864Z,96199.77
2023-04-16T15:19:43.827Z,96199.84
2023-04-16T15:22:12.720Z,96198.62
2023-04-16T15:24:40.908Z,96196.92
2023-04-16T15:27:11.634Z,96199.91
2023-04-16T15:29:40.227Z,96205.21
2023-04-16T15:32:08.499Z,96214.27
2023-04-16T15:34:36.585Z,96222.02
2023-04-16T15:37:04.854Z,96229.16
2023-04-16T15:39:33.023Z,96238.75
2023-04-16T15:42:04.026Z,96240.73
2023-04-16T15:44:33.572Z,96223.89
2023-04-16T15:47:01.564Z,96222.64
2023-04-16T15:49:29.709Z,96225.15
2023-04-16T15:51:57.893Z,96226.06
2023-04-16T15:54:26.102Z,96224.29
2023-04-16T15:56:54.241Z,96221.41
2023-04-16T15:59:22.312Z,96221.72
2023-04-16T16:01:50.461Z,96220.54
2023-04-16T16:04:18.892Z,96217.90
2023-04-16T16:06:47.150Z,96219.56
2023-04-16T16:09:15.412Z,96219.41
2023-04-16T16:11:43.484Z,96220.08
2023-04-16T16:14:11.855Z,96221.60
2023-04-16T16:16:40.308Z,96215.74
2023-04-16T16:19:08.613Z,96211.89
2023-04-16T16:21:37.722Z,96217.41
2023-04-16T16:24:05.992Z,96214.38
2023-04-16T16:26:34.059Z,96217.59
2023-04-16T16:29:02.157Z,96217.54
2023-04-16T16:31:30.534Z,96215.48
2023-04-16T16:33:58.704Z,96214.17
2023-04-16T16:36:27.686Z,96214.56
2023-04-16T16:38:55.659Z,96210.38
2023-04-16T16:41:23.936Z,96208.01
2023-04-16T16:43:56.006Z,96210.01
2023-04-16T16:46:24.101Z,96210.73
2023-04-16T16:48:52.142Z,96218.48
2023-04-16T16:51:20.112Z,96214.97
2023-04-16T16:53:48.187Z,96215.52
2023-04-16T16:56:16.249Z,96217.69
2023-04-16T16:58:44.350Z,96215.00
2023-04-16T17:01:12.558Z,96217.24
2023-04-16T17:03:41.231Z,96216.78
2023-04-16T17:06:09.469Z,96216.87
2023-04-16T17:08:37.541Z,96221.56
2023-04-16T17:11:05.709Z,96224.41
2023-04-16T17:13:34.807Z,96233.55
2023-04-16T17:16:02.968Z,96238.85
2023-04-16T17:18:31.256Z,96239.63
2023-04-16T17:20:59.237Z,96240.94
2023-04-16T17:23:27.496Z,96246.23
2023-04-16T17:25:55.444Z,96250.23
2023-04-16T17:28:23.450Z,96255.30
2023-04-16T17:30:52.027Z,96257.61
2023-04-16T17:33:20.670Z,96257.76
2023-04-16T17:35:48.788Z,96262.89
2023-04-16T17:38:16.746Z,96267.82
2023-04-16T17:40:44.925Z,96269.50
2023-04-16T17:43:13.201Z,96267.35
2023-04-16T17:45:41.233Z,96268.27
2023-04-16T17:48:09.516Z,96270.88
2023-04-16T17:50:39.515Z,96273.88
2023-04-16T17:53:11.120Z,96274.18
2023-04-16T17:55:39.313Z,96271.95
2023-04-16T17:58:07.367Z,96277.40
2023-04-16T18:00:35.529Z,96276.69
2023-04-16T18:03:03.888Z,96278.69
2023-04-16T18:05:32.100Z,96280.98
2023-04-16T18:08:00.157Z,96280.20
2023-04-16T18:10:31.726Z,96281.20
2023-04-16T18:13:01.222Z,96286.82
2023-04-16T18:15:29.931Z,96290.80
2023-04-16T18:17:58.099Z,96290.31
2023-04-16T18:20:27.395Z,96294.47
2023-04-16T18:22:56.181Z,96291.30
2023-04-16T18:25:33.902Z,96294.84
2023-04-16T18:28:04.065Z,96292.28
2023-04-16T18:30:32.229Z,96293.28
2023-04-16T18:33:26.334Z,96298.95
2023-04-16T18:35:48.678Z,96299.24
2023-04-16T18:38:16.867Z,96298.62
2023-04-16T18:40:46.964Z,96297.00
2023-04-16T18:43:15.041Z,96301.21
2023-04-16T18:45:42.907Z,96305.17
2023-04-16T18:48:11.401Z,96303.09
2023-04-16T18:50:39.471Z,96306.39
2023-04-16T18:53:07.530Z,96307.62
2023-04-16T18:55:35.707Z,96307.98
2023-04-16T18:58:03.880Z,96311.59
2023-04-16T19:00:32.319Z,96315.02
2023-04-16T19:03:00.658Z,96313.85
2023-04-16T19:05:29.230Z,96313.54
2023-04-16T19:07:57.233Z,96310.53
2023-04-16T19:10:25.271Z,96309.15
2023-04-16T19:12:53.440Z,96314.27
2023-04-16T19:15:21.411Z,96315.77
2023-04-16T19:17:49.408Z,96312.45
2023-04-16T19:20:17.775Z,96314.83
2023-04-16T19:22:46.145Z,96315.95
2023-04-16T19:25:14.220Z,96315.40
2023-04-16T19:27:42.297Z,96313.08
2023-04-16T19:30:11.147Z,96312.69
2023-04-16T19:32:39.386Z,96310.98
2023-04-16T19:35:08.157Z,96313.80
2023-04-16T19:37:36.317Z,96310.81
2023-04-16T19:40:06.370Z,96309.96
2023-04-16T19:42:34.505Z,96305.40
2023-04-16T19:45:03.290Z,96307.00
2023-04-16T19:47:31.291Z,96307.45
2023-04-16T19:49:59.433Z,96303.58
2023-04-16T19:52:27.723Z,96304.06
2023-04-16T19:54:55.993Z,96305.66
2023-04-16T19:57:24.066Z,96301.34
2023-04-16T19:59:53.543Z,96305.25
2023-04-16T20:02:23.303Z,96308.38
2023-04-16T20:04:53.204Z,96306.98
2023-04-16T20:07:21.157Z,96304.97
2023-04-16T20:09:49.126Z,96302.27
2023-04-16T20:12:18.745Z,96300.34
2023-04-16T20:14:47.434Z,96296.64
2023-04-16T20:17:19.749Z,96296.67
2023-04-16T20:19:49.659Z,96303.88
2023-04-16T20:22:18.924Z,96301.96
2023-04-16T20:24:48.111Z,96292.52
2023-04-16T20:27:17.211Z,96297.02
2023-04-16T20:29:45.286Z,96295.21
2023-04-16T20:32:13.451Z,96295.05
2023-04-16T20:34:41.538Z,96291.20
2023-04-16T20:37:09.587Z,96294.09
2023-04-16T20:39:37.676Z,96291.39
2023-04-16T20:42:10.139Z,96292.52
2023-04-16T20:44:41.298Z,96293.89
2023-04-16T20:47:09.861Z,96291.79
2023-04-16T20:49:40.400Z,96292.01
2023-04-16T20:52:08.477Z,96299.58
2023-04-16T20:54:36.532Z,96301.91
2023-04-16T20:57:05.071Z,96296.13
2023-04-16T20:59:33.191Z,96302.10
2023-04-16T21:02:01.352Z,96304.63
2023-04-16T21:04:29.778Z,96300.55
2023-04-16T21:06:57.983Z,96302.09
2023-04-16T21:09:26.074Z,96299.77
2023-04-16T21:11:54.179Z,96293.31
2023-04-16T21:14:22.302Z,96292.38
2023-04-16T21:16:50.188Z,96286.84
2023-04-16T21:19:18.283Z,96288.58
2023-04-16T21:21:46.873Z,96286.25
2023-04-16T21:24:14.737Z,96288.60
2023-04-16T21:26:42.659Z,96287.98
2023-04-16T21:29:11.204Z,96288.29
2023-04-16T21:31:39.631Z,96286.67
2023-04-16T21:34:07.769Z,96286.42
2023-04-16T21:36:36.018Z,96288.17
2023-04-16T21:39:04.125Z,96285.17
2023-04-16T21:41:32.279Z,96285.70
2023-04-16T21:44:00.347Z,96283.58
2023-04-16T21:46:28.947Z,96280.20
2023-04-16T21:48:57.024Z,96277.76
2023-04-16T21:51:29.035Z,96276.57
2023-04-16T21:53:57.333Z,96277.98
2023-04-16T21:56:26.102Z,96276.50
2023-04-16T21:58:54.204Z,96276.73
2023-04-16T22:01:22.298Z,96276.02
2023-04-16T22:03:52.191Z,96274.00
2023-04-16T22:06:20.708Z,96274.13
2023-04-16T22:08:50.318Z,96273.45
2023-04-16T22:11:18.438Z,96272.98
2023-04-16T22:13:47.913Z,96272.58
2023-04-16T22:16:16.328Z,96273.65
2023-04-16T22:18:45.300Z,96273.41
2023-04-16T22:21:13.284Z,96272.00
2023-04-16T22:23:41.256Z,96271.75
2023-04-16T22:26:09.435Z,96270.14
2023-04-16T22:28:37.335Z,96273.88
2023-04-16T22:31:05.699Z,96268.98
2023-04-16T22:33:33.688Z,96272.16
2023-04-16T22:36:01.723Z,96270.23
2023-04-16T22:38:29.791Z,96268.91
2023-04-16T22:40:57.967Z,96266.41
2023-04-16T22:43:26.143Z,96265.24
2023-04-16T22:46:05.028Z,96257.19
2023-04-16T22:48:34.164Z,96263.38
2023-04-16T22:51:02.844Z,96262.13
2023-04-16T22:53:31.119Z,96264.95
2023-04-16T22:55:59.399Z,96261.73
2023-04-16T22:58:27.577Z,96259.89
2023-04-16T23:00:57.742Z,96256.34
2023-04-16T23:03:26.171Z,96255.80
2023-04-16T23:05:54.556Z,96253.64
2023-04-16T23:08:22.524Z,96250.86
2023-04-16T23:10:50.596Z,96252.26
2023-04-16T23:13:18.662Z,96252.02
2023-04-16T23:15:47.539Z,96251.77
2023-04-16T23:18:16.379Z,96250.29
2023-04-16T23:20:44.625Z,96248.96
2023-04-16T23:23:12.894Z,96243.77
2023-04-16T23:25:41.624Z,96247.05
2023-04-16T23:28:09.661Z,96245.35
2023-04-16T23:30:37.641Z,96244.44
2023-04-16T23:33:05.718Z,96242.87
2023-04-16T23:35:33.766Z,96238.81
2023-04-16T23:38:01.845Z,96236.58
2023-04-16T23:40:30.317Z,96232.80
2023-04-16T23:42:58.492Z,96231.14
2023-04-16T23:45:26.640Z,96228.16
2023-04-16T23:47:55.295Z,96228.45
2023-04-16T23:50:23.262Z,96231.98
2023-04-16T23:52:51.712Z,96226.75
2023-04-16T23:55:19.774Z,96231.80
2023-04-16T23:57:47.768Z,96227.65
